sensor_id;sensor_type;location;lat;lon;timestamp;temperature;humidity
68128;SHT30;54931;52.098;21.006;2023-08-07T00:00:50;15.06;82.68
68128;SHT30;54931;52.098;21.006;2023-08-07T00:03:32;15.05;82.79
68128;SHT30;54931;52.098;21.006;2023-08-07T00:06:00;15.03;82.76
68128;SHT30;54931;52.098;21.006;2023-08-07T00:08:28;15.00;82.88
68128;SHT30;54931;52.098;21.006;2023-08-07T00:11:04;14.98;83.00
68128;SHT30;54931;52.098;21.006;2023-08-07T00:13:35;14.95;83.03
68128;SHT30;54931;52.098;21.006;2023-08-07T00:16:03;14.93;83.13
68128;SHT30;54931;52.098;21.006;2023-08-07T00:18:31;14.92;83.18
68128;SHT30;54931;52.098;21.006;2023-08-07T00:20:59;14.91;83.22
68128;SHT30;54931;52.098;21.006;2023-08-07T00:23:27;14.91;83.25
68128;SHT30;54931;52.098;21.006;2023-08-07T00:25:55;14.92;83.32
68128;SHT30;54931;52.098;21.006;2023-08-07T00:28:22;14.92;83.20
68128;SHT30;54931;52.098;21.006;2023-08-07T00:30:49;14.93;83.20
68128;SHT30;54931;52.098;21.006;2023-08-07T00:33:17;14.94;83.17
68128;SHT30;54931;52.098;21.006;2023-08-07T00:35:45;14.94;83.10
68128;SHT30;54931;52.098;21.006;2023-08-07T00:38:12;14.94;83.13
68128;SHT30;54931;52.098;21.006;2023-08-07T00:40:40;14.95;83.09
68128;SHT30;54931;52.098;21.006;2023-08-07T00:43:08;14.95;83.03
68128;SHT30;54931;52.098;21.006;2023-08-07T00:45:41;14.96;83.01
68128;SHT30;54931;52.098;21.006;2023-08-07T00:48:11;14.96;82.95
68128;SHT30;54931;52.098;21.006;2023-08-07T00:50:40;14.97;82.89
68128;SHT30;54931;52.098;21.006;2023-08-07T00:53:09;14.98;82.74
68128;SHT30;54931;52.098;21.006;2023-08-07T00:55:37;14.99;82.56
68128;SHT30;54931;52.098;21.006;2023-08-07T00:58:05;14.98;82.50
68128;SHT30;54931;52.098;21.006;2023-08-07T01:00:32;14.98;82.51
68128;SHT30;54931;52.098;21.006;2023-08-07T01:03:01;14.98;82.52
68128;SHT30;54931;52.098;21.006;2023-08-07T01:05:34;14.97;82.44
68128;SHT30;54931;52.098;21.006;2023-08-07T01:08:02;14.98;82.40
68128;SHT30;54931;52.098;21.006;2023-08-07T01:10:48;14.99;82.41
68128;SHT30;54931;52.098;21.006;2023-08-07T01:13:47;14.94;82.34
68128;SHT30;54931;52.098;21.006;2023-08-07T01:16:29;14.90;82.57
68128;SHT30;54931;52.098;21.006;2023-08-07T01:19:04;14.84;82.72
68128;SHT30;54931;52.098;21.006;2023-08-07T01:21:48;14.79;82.90
68128;SHT30;54931;52.098;21.006;2023-08-07T01:24:16;14.74;83.28
68128;SHT30;54931;52.098;21.006;2023-08-07T01:26:44;14.69;83.34
68128;SHT30;54931;52.098;21.006;2023-08-07T01:29:20;14.62;83.66
68128;SHT30;54931;52.098;21.006;2023-08-07T01:32:04;14.57;83.68
68128;SHT30;54931;52.098;21.006;2023-08-07T01:34:37;14.56;83.83
68128;SHT30;54931;52.098;21.006;2023-08-07T01:37:09;14.56;83.95
68128;SHT30;54931;52.098;21.006;2023-08-07T01:39:39;14.53;84.04
68128;SHT30;54931;52.098;21.006;2023-08-07T01:42:09;14.51;84.14
68128;SHT30;54931;52.098;21.006;2023-08-07T01:44:36;14.49;84.19
68128;SHT30;54931;52.098;21.006;2023-08-07T01:47:05;14.47;84.30
68128;SHT30;54931;52.098;21.006;2023-08-07T01:49:33;14.47;84.40
68128;SHT30;54931;52.098;21.006;2023-08-07T01:52:01;14.46;84.47
68128;SHT30;54931;52.098;21.006;2023-08-07T01:54:28;14.47;84.51
68128;SHT30;54931;52.098;21.006;2023-08-07T01:56:56;14.47;84.65
68128;SHT30;54931;52.098;21.006;2023-08-07T01:59:23;14.44;84.67
68128;SHT30;54931;52.098;21.006;2023-08-07T02:01:51;14.41;84.75
68128;SHT30;54931;52.098;21.006;2023-08-07T02:04:18;14.38;84.70
68128;SHT30;54931;52.098;21.006;2023-08-07T02:06:45;14.38;84.80
68128;SHT30;54931;52.098;21.006;2023-08-07T02:09:13;14.36;84.86
68128;SHT30;54931;52.098;21.006;2023-08-07T02:11:41;14.34;84.95
68128;SHT30;54931;52.098;21.006;2023-08-07T02:14:09;14.33;84.95
68128;SHT30;54931;52.098;21.006;2023-08-07T02:16:37;14.32;85.06
68128;SHT30;54931;52.098;21.006;2023-08-07T02:19:05;14.30;85.09
68128;SHT30;54931;52.098;21.006;2023-08-07T02:21:33;14.30;85.13
68128;SHT30;54931;52.098;21.006;2023-08-07T02:24:00;14.31;85.06
68128;SHT30;54931;52.098;21.006;2023-08-07T02:26:28;14.31;85.04
68128;SHT30;54931;52.098;21.006;2023-08-07T02:28:55;14.31;85.03
68128;SHT30;54931;52.098;21.006;2023-08-07T02:31:23;14.31;84.99
68128;SHT30;54931;52.098;21.006;2023-08-07T02:33:50;14.32;84.94
68128;SHT30;54931;52.098;21.006;2023-08-07T02:36:18;14.33;84.93
68128;SHT30;54931;52.098;21.006;2023-08-07T02:38:46;14.32;84.90
68128;SHT30;54931;52.098;21.006;2023-08-07T02:41:13;14.33;84.89
68128;SHT30;54931;52.098;21.006;2023-08-07T02:43:40;14.33;84.80
68128;SHT30;54931;52.098;21.006;2023-08-07T02:46:08;14.33;84.76
68128;SHT30;54931;52.098;21.006;2023-08-07T02:48:36;14.32;84.73
68128;SHT30;54931;52.098;21.006;2023-08-07T02:51:03;14.33;84.77
68128;SHT30;54931;52.098;21.006;2023-08-07T02:53:31;14.34;84.75
68128;SHT30;54931;52.098;21.006;2023-08-07T02:55:58;14.34;84.77
68128;SHT30;54931;52.098;21.006;2023-08-07T02:58:26;14.34;84.78
68128;SHT30;54931;52.098;21.006;2023-08-07T03:00:53;14.33;84.74
68128;SHT30;54931;52.098;21.006;2023-08-07T03:03:21;14.33;84.77
68128;SHT30;54931;52.098;21.006;2023-08-07T03:05:49;14.31;84.81
68128;SHT30;54931;52.098;21.006;2023-08-07T03:08:18;14.29;84.74
68128;SHT30;54931;52.098;21.006;2023-08-07T03:10:52;14.26;84.80
68128;SHT30;54931;52.098;21.006;2023-08-07T03:13:22;14.24;84.80
68128;SHT30;54931;52.098;21.006;2023-08-07T03:15:58;14.23;84.79
68128;SHT30;54931;52.098;21.006;2023-08-07T03:18:34;14.20;84.82
68128;SHT30;54931;52.098;21.006;2023-08-07T03:21:02;14.16;84.74
68128;SHT30;54931;52.098;21.006;2023-08-07T03:23:29;14.12;84.84
68128;SHT30;54931;52.098;21.006;2023-08-07T03:26:04;14.10;84.87
68128;SHT30;54931;52.098;21.006;2023-08-07T03:28:35;14.06;84.93
68128;SHT30;54931;52.098;21.006;2023-08-07T03:31:03;14.04;85.01
68128;SHT30;54931;52.098;21.006;2023-08-07T03:33:31;14.03;85.02
68128;SHT30;54931;52.098;21.006;2023-08-07T03:35:59;14.03;85.10
68128;SHT30;54931;52.098;21.006;2023-08-07T03:38:27;14.03;85.10
68128;SHT30;54931;52.098;21.006;2023-08-07T03:40:55;14.04;85.14
68128;SHT30;54931;52.098;21.006;2023-08-07T03:43:23;14.06;85.13
68128;SHT30;54931;52.098;21.006;2023-08-07T03:45:54;14.07;85.16
68128;SHT30;54931;52.098;21.006;2023-08-07T03:48:24;14.08;85.10
68128;SHT30;54931;52.098;21.006;2023-08-07T03:50:52;14.11;85.15
68128;SHT30;54931;52.098;21.006;2023-08-07T03:53:19;14.15;85.14
68128;SHT30;54931;52.098;21.006;2023-08-07T03:55:51;14.18;85.10
68128;SHT30;54931;52.098;21.006;2023-08-07T03:58:19;14.23;84.97
68128;SHT30;54931;52.098;21.006;2023-08-07T04:00:47;14.28;84.72
68128;SHT30;54931;52.098;21.006;2023-08-07T04:03:14;14.31;84.45
68128;SHT30;54931;52.098;21.006;2023-08-07T04:05:42;14.32;84.22
68128;SHT30;54931;52.098;21.006;2023-08-07T04:08:09;14.34;84.06
68128;SHT30;54931;52.098;21.006;2023-08-07T04:10:37;14.35;83.79
68128;SHT30;54931;52.098;21.006;2023-08-07T04:13:07;14.35;83.68
68128;SHT30;54931;52.098;21.006;2023-08-07T04:15:34;14.36;83.70
68128;SHT30;54931;52.098;21.006;2023-08-07T04:18:02;14.36;83.50
68128;SHT30;54931;52.098;21.006;2023-08-07T04:20:31;14.37;83.37
68128;SHT30;54931;52.098;21.006;2023-08-07T04:22:59;14.38;83.16
68128;SHT30;54931;52.098;21.006;2023-08-07T04:25:27;14.38;83.03
68128;SHT30;54931;52.098;21.006;2023-08-07T04:27:58;14.39;82.66
68128;SHT30;54931;52.098;21.006;2023-08-07T04:30:25;14.40;82.52
68128;SHT30;54931;52.098;21.006;2023-08-07T04:32:52;14.41;82.49
68128;SHT30;54931;52.098;21.006;2023-08-07T04:35:20;14.41;82.49
68128;SHT30;54931;52.098;21.006;2023-08-07T04:37:48;14.44;82.36
68128;SHT30;54931;52.098;21.006;2023-08-07T04:40:16;14.45;82.23
68128;SHT30;54931;52.098;21.006;2023-08-07T04:42:44;14.47;82.10
68128;SHT30;54931;52.098;21.006;2023-08-07T04:45:11;14.50;81.89
68128;SHT30;54931;52.098;21.006;2023-08-07T04:47:39;14.52;81.83
68128;SHT30;54931;52.098;21.006;2023-08-07T04:50:06;14.54;81.77
68128;SHT30;54931;52.098;21.006;2023-08-07T04:52:35;14.57;81.69
68128;SHT30;54931;52.098;21.006;2023-08-07T04:55:03;14.57;81.70
68128;SHT30;54931;52.098;21.006;2023-08-07T04:57:32;14.58;81.64
68128;SHT30;54931;52.098;21.006;2023-08-07T05:00:00;14.59;81.64
68128;SHT30;54931;52.098;21.006;2023-08-07T05:02:28;14.61;81.61
68128;SHT30;54931;52.098;21.006;2023-08-07T05:04:56;14.63;81.41
68128;SHT30;54931;52.098;21.006;2023-08-07T05:07:24;14.68;81.44
68128;SHT30;54931;52.098;21.006;2023-08-07T05:09:51;14.72;81.57
68128;SHT30;54931;52.098;21.006;2023-08-07T05:12:19;14.77;81.69
68128;SHT30;54931;52.098;21.006;2023-08-07T05:14:46;14.84;81.56
68128;SHT30;54931;52.098;21.006;2023-08-07T05:17:14;14.89;81.54
68128;SHT30;54931;52.098;21.006;2023-08-07T05:19:41;14.97;81.54
68128;SHT30;54931;52.098;21.006;2023-08-07T05:22:09;15.01;81.16
68128;SHT30;54931;52.098;21.006;2023-08-07T05:24:37;15.06;81.19
68128;SHT30;54931;52.098;21.006;2023-08-07T05:27:08;15.14;81.01
68128;SHT30;54931;52.098;21.006;2023-08-07T05:29:36;15.24;81.03
68128;SHT30;54931;52.098;21.006;2023-08-07T05:34:41;15.45;80.76
68128;SHT30;54931;52.098;21.006;2023-08-07T05:37:09;15.50;80.58
68128;SHT30;54931;52.098;21.006;2023-08-07T05:39:36;15.51;80.01
68128;SHT30;54931;52.098;21.006;2023-08-07T05:42:04;15.49;80.01
68128;SHT30;54931;52.098;21.006;2023-08-07T05:44:32;15.45;79.81
68128;SHT30;54931;52.098;21.006;2023-08-07T05:46:59;15.43;79.39
68128;SHT30;54931;52.098;21.006;2023-08-07T05:49:28;15.42;79.40
68128;SHT30;54931;52.098;21.006;2023-08-07T05:51:55;15.40;78.98
68128;SHT30;54931;52.098;21.006;2023-08-07T05:54:23;15.38;78.61
68128;SHT30;54931;52.098;21.006;2023-08-07T05:56:50;15.35;78.36
68128;SHT30;54931;52.098;21.006;2023-08-07T05:59:18;15.36;78.39
68128;SHT30;54931;52.098;21.006;2023-08-07T06:01:45;15.37;78.40
68128;SHT30;54931;52.098;21.006;2023-08-07T06:04:12;15.41;78.45
68128;SHT30;54931;52.098;21.006;2023-08-07T06:06:41;15.44;77.65
68128;SHT30;54931;52.098;21.006;2023-08-07T06:09:09;15.48;77.64
68128;SHT30;54931;52.098;21.006;2023-08-07T06:11:37;15.52;77.42
68128;SHT30;54931;52.098;21.006;2023-08-07T06:14:05;15.55;76.99
68128;SHT30;54931;52.098;21.006;2023-08-07T06:16:33;15.57;76.92
68128;SHT30;54931;52.098;21.006;2023-08-07T06:19:01;15.59;76.18
68128;SHT30;54931;52.098;21.006;2023-08-07T06:21:30;15.60;75.96
68128;SHT30;54931;52.098;21.006;2023-08-07T06:23:58;15.61;75.98
68128;SHT30;54931;52.098;21.006;2023-08-07T06:26:25;15.65;75.19
68128;SHT30;54931;52.098;21.006;2023-08-07T06:28:53;15.68;75.10
68128;SHT30;54931;52.098;21.006;2023-08-07T06:31:20;15.68;75.24
68128;SHT30;54931;52.098;21.006;2023-08-07T06:33:49;15.65;74.98
68128;SHT30;54931;52.098;21.006;2023-08-07T06:36:17;15.61;73.88
68128;SHT30;54931;52.098;21.006;2023-08-07T06:38:45;15.59;73.01
68128;SHT30;54931;52.098;21.006;2023-08-07T06:41:12;15.61;72.82
68128;SHT30;54931;52.098;21.006;2023-08-07T06:43:40;15.65;72.82
68128;SHT30;54931;52.098;21.006;2023-08-07T06:46:08;15.72;72.58
68128;SHT30;54931;52.098;21.006;2023-08-07T06:48:37;15.83;72.62
68128;SHT30;54931;52.098;21.006;2023-08-07T06:51:05;15.95;72.52
68128;SHT30;54931;52.098;21.006;2023-08-07T06:53:33;16.11;71.84
68128;SHT30;54931;52.098;21.006;2023-08-07T06:56:00;16.23;71.50
68128;SHT30;54931;52.098;21.006;2023-08-07T06:58:29;16.35;70.95
68128;SHT30;54931;52.098;21.006;2023-08-07T07:00:57;16.43;70.31
68128;SHT30;54931;52.098;21.006;2023-08-07T07:03:25;16.47;70.02
68128;SHT30;54931;52.098;21.006;2023-08-07T07:05:53;16.52;70.08
68128;SHT30;54931;52.098;21.006;2023-08-07T07:08:20;16.53;69.82
68128;SHT30;54931;52.098;21.006;2023-08-07T07:10:50;16.51;69.98
68128;SHT30;54931;52.098;21.006;2023-08-07T07:13:18;16.48;70.21
68128;SHT30;54931;52.098;21.006;2023-08-07T07:15:45;16.49;70.46
68128;SHT30;54931;52.098;21.006;2023-08-07T07:18:13;16.49;70.11
68128;SHT30;54931;52.098;21.006;2023-08-07T07:20:40;16.48;69.56
68128;SHT30;54931;52.098;21.006;2023-08-07T07:23:08;16.45;69.58
68128;SHT30;54931;52.098;21.006;2023-08-07T07:25:36;16.46;69.88
68128;SHT30;54931;52.098;21.006;2023-08-07T07:28:04;16.44;69.86
68128;SHT30;54931;52.098;21.006;2023-08-07T07:30:31;16.41;70.17
68128;SHT30;54931;52.098;21.006;2023-08-07T07:32:59;16.38;70.22
68128;SHT30;54931;52.098;21.006;2023-08-07T07:35:26;16.33;70.22
68128;SHT30;54931;52.098;21.006;2023-08-07T07:37:54;16.27;70.42
68128;SHT30;54931;52.098;21.006;2023-08-07T07:40:23;16.23;70.37
68128;SHT30;54931;52.098;21.006;2023-08-07T07:42:51;16.24;70.59
68128;SHT30;54931;52.098;21.006;2023-08-07T07:45:19;16.37;70.88
68128;SHT30;54931;52.098;21.006;2023-08-07T07:47:47;16.50;70.12
68128;SHT30;54931;52.098;21.006;2023-08-07T07:50:15;16.56;69.04
68128;SHT30;54931;52.098;21.006;2023-08-07T07:52:44;16.59;68.87
68128;SHT30;54931;52.098;21.006;2023-08-07T07:55:11;16.65;68.87
68128;SHT30;54931;52.098;21.006;2023-08-07T07:57:41;16.66;68.65
68128;SHT30;54931;52.098;21.006;2023-08-07T08:00:10;16.72;69.05
68128;SHT30;54931;52.098;21.006;2023-08-07T08:02:40;16.94;68.72
68128;SHT30;54931;52.098;21.006;2023-08-07T08:05:08;17.15;67.97
68128;SHT30;54931;52.098;21.006;2023-08-07T08:07:39;17.21;66.70
68128;SHT30;54931;52.098;21.006;2023-08-07T08:10:08;17.13;66.67
68128;SHT30;54931;52.098;21.006;2023-08-07T08:12:36;17.04;67.53
68128;SHT30;54931;52.098;21.006;2023-08-07T08:15:04;17.02;67.72
68128;SHT30;54931;52.098;21.006;2023-08-07T08:17:34;17.10;67.19
68128;SHT30;54931;52.098;21.006;2023-08-07T08:20:02;17.44;66.76
68128;SHT30;54931;52.098;21.006;2023-08-07T08:22:31;17.91;66.15
68128;SHT30;54931;52.098;21.006;2023-08-07T08:24:58;18.08;64.90
68128;SHT30;54931;52.098;21.006;2023-08-07T08:27:27;18.02;64.87
68128;SHT30;54931;52.098;21.006;2023-08-07T08:29:54;17.94;64.53
68128;SHT30;54931;52.098;21.006;2023-08-07T08:32:23;17.93;64.63
68128;SHT30;54931;52.098;21.006;2023-08-07T08:34:51;18.00;64.32
68128;SHT30;54931;52.098;21.006;2023-08-07T08:37:18;18.10;63.98
68128;SHT30;54931;52.098;21.006;2023-08-07T08:39:46;18.22;62.65
68128;SHT30;54931;52.098;21.006;2023-08-07T08:42:14;18.33;62.98
68128;SHT30;54931;52.098;21.006;2023-08-07T08:44:46;18.43;61.88
68128;SHT30;54931;52.098;21.006;2023-08-07T08:47:20;18.59;62.18
68128;SHT30;54931;52.098;21.006;2023-08-07T08:49:50;18.76;60.99
68128;SHT30;54931;52.098;21.006;2023-08-07T08:55:24;19.44;59.86
68128;SHT30;54931;52.098;21.006;2023-08-07T08:57:53;19.56;58.69
68128;SHT30;54931;52.098;21.006;2023-08-07T09:00:22;19.64;59.68
68128;SHT30;54931;52.098;21.006;2023-08-07T09:02:53;19.62;58.07
68128;SHT30;54931;52.098;21.006;2023-08-07T09:05:21;19.72;57.47
68128;SHT30;54931;52.098;21.006;2023-08-07T09:07:48;20.04;57.94
68128;SHT30;54931;52.098;21.006;2023-08-07T09:10:17;20.50;56.23
68128;SHT30;54931;52.098;21.006;2023-08-07T09:13:04;20.80;54.03
68128;SHT30;54931;52.098;21.006;2023-08-07T09:15:37;21.03;52.83
68128;SHT30;54931;52.098;21.006;2023-08-07T09:18:07;21.23;52.29
68128;SHT30;54931;52.098;21.006;2023-08-07T09:20:36;21.42;52.02
68128;SHT30;54931;52.098;21.006;2023-08-07T09:23:09;21.71;53.25
68128;SHT30;54931;52.098;21.006;2023-08-07T09:25:38;22.11;52.32
68128;SHT30;54931;52.098;21.006;2023-08-07T09:28:06;22.36;50.47
68128;SHT30;54931;52.098;21.006;2023-08-07T09:30:34;22.39;49.88
68128;SHT30;54931;52.098;21.006;2023-08-07T09:33:05;22.41;48.80
68128;SHT30;54931;52.098;21.006;2023-08-07T09:35:35;22.45;48.86
68128;SHT30;54931;52.098;21.006;2023-08-07T09:38:04;22.61;49.91
68128;SHT30;54931;52.098;21.006;2023-08-07T09:40:35;22.73;49.45
68128;SHT30;54931;52.098;21.006;2023-08-07T09:43:03;22.66;49.18
68128;SHT30;54931;52.098;21.006;2023-08-07T09:45:31;22.60;48.87
68128;SHT30;54931;52.098;21.006;2023-08-07T09:48:04;22.40;49.04
68128;SHT30;54931;52.098;21.006;2023-08-07T09:50:34;22.12;48.73
68128;SHT30;54931;52.098;21.006;2023-08-07T09:53:03;21.90;48.96
68128;SHT30;54931;52.098;21.006;2023-08-07T09:55:32;21.63;49.66
68128;SHT30;54931;52.098;21.006;2023-08-07T09:58:11;21.26;50.28
68128;SHT30;54931;52.098;21.006;2023-08-07T10:00:40;21.00;51.23
68128;SHT30;54931;52.098;21.006;2023-08-07T10:03:09;20.91;51.85
68128;SHT30;54931;52.098;21.006;2023-08-07T10:05:37;21.07;52.19
68128;SHT30;54931;52.098;21.006;2023-08-07T10:08:06;21.22;51.89
68128;SHT30;54931;52.098;21.006;2023-08-07T10:10:35;21.20;51.18
68128;SHT30;54931;52.098;21.006;2023-08-07T10:13:05;21.35;51.66
68128;SHT30;54931;52.098;21.006;2023-08-07T10:15:33;21.60;51.03
68128;SHT30;54931;52.098;21.006;2023-08-07T10:18:05;21.57;50.27
68128;SHT30;54931;52.098;21.006;2023-08-07T10:20:33;21.34;49.30
68128;SHT30;54931;52.098;21.006;2023-08-07T10:23:06;21.11;50.61
68128;SHT30;54931;52.098;21.006;2023-08-07T10:25:41;20.96;51.18
68128;SHT30;54931;52.098;21.006;2023-08-07T10:28:14;20.80;51.93
68128;SHT30;54931;52.098;21.006;2023-08-07T10:30:46;20.64;52.37
68128;SHT30;54931;52.098;21.006;2023-08-07T10:33:16;20.86;52.85
68128;SHT30;54931;52.098;21.006;2023-08-07T10:35:47;21.27;51.94
68128;SHT30;54931;52.098;21.006;2023-08-07T10:38:18;21.52;50.99
68128;SHT30;54931;52.098;21.006;2023-08-07T10:43:30;21.69;51.41
68128;SHT30;54931;52.098;21.006;2023-08-07T10:46:02;21.71;50.04
68128;SHT30;54931;52.098;21.006;2023-08-07T10:48:39;21.55;49.23
68128;SHT30;54931;52.098;21.006;2023-08-07T10:51:17;21.35;48.80
68128;SHT30;54931;52.098;21.006;2023-08-07T10:53:48;21.24;49.47
68128;SHT30;54931;52.098;21.006;2023-08-07T10:56:30;21.17;50.18
68128;SHT30;54931;52.098;21.006;2023-08-07T10:59:09;21.07;50.34
68128;SHT30;54931;52.098;21.006;2023-08-07T11:01:42;20.96;50.32
68128;SHT30;54931;52.098;21.006;2023-08-07T11:04:12;20.83;49.47
68128;SHT30;54931;52.098;21.006;2023-08-07T11:06:43;20.68;49.27
68128;SHT30;54931;52.098;21.006;2023-08-07T11:09:16;20.62;50.03
68128;SHT30;54931;52.098;21.006;2023-08-07T11:11:45;20.71;50.02
68128;SHT30;54931;52.098;21.006;2023-08-07T11:14:17;20.94;49.89
68128;SHT30;54931;52.098;21.006;2023-08-07T11:16:47;21.17;49.05
68128;SHT30;54931;52.098;21.006;2023-08-07T11:19:16;21.28;49.29
68128;SHT30;54931;52.098;21.006;2023-08-07T11:21:46;21.40;48.88
68128;SHT30;54931;52.098;21.006;2023-08-07T11:24:16;21.55;48.50
68128;SHT30;54931;52.098;21.006;2023-08-07T11:26:46;21.71;47.61
68128;SHT30;54931;52.098;21.006;2023-08-07T11:29:17;21.95;48.27
68128;SHT30;54931;52.098;21.006;2023-08-07T11:31:46;22.22;48.01
68128;SHT30;54931;52.098;21.006;2023-08-07T11:34:16;22.44;47.00
68128;SHT30;54931;52.098;21.006;2023-08-07T11:36:45;22.45;45.99
68128;SHT30;54931;52.098;21.006;2023-08-07T11:39:14;22.44;46.78
68128;SHT30;54931;52.098;21.006;2023-08-07T11:41:42;22.39;46.57
68128;SHT30;54931;52.098;21.006;2023-08-07T11:44:09;22.37;46.66
68128;SHT30;54931;52.098;21.006;2023-08-07T11:46:38;22.27;46.63
68128;SHT30;54931;52.098;21.006;2023-08-07T11:49:06;22.13;47.19
68128;SHT30;54931;52.098;21.006;2023-08-07T11:51:36;21.81;47.19
68128;SHT30;54931;52.098;21.006;2023-08-07T11:54:06;21.53;48.11
68128;SHT30;54931;52.098;21.006;2023-08-07T11:56:34;21.49;48.98
68128;SHT30;54931;52.098;21.006;2023-08-07T11:59:03;21.62;49.77
68128;SHT30;54931;52.098;21.006;2023-08-07T12:01:36;21.66;48.05
68128;SHT30;54931;52.098;21.006;2023-08-07T12:06:37;21.79;48.59
68128;SHT30;54931;52.098;21.006;2023-08-07T12:09:11;22.03;49.99
68128;SHT30;54931;52.098;21.006;2023-08-07T12:11:40;22.13;47.65
68128;SHT30;54931;52.098;21.006;2023-08-07T12:14:13;21.98;47.36
68128;SHT30;54931;52.098;21.006;2023-08-07T12:16:45;21.95;47.89
68128;SHT30;54931;52.098;21.006;2023-08-07T12:19:13;21.93;47.76
68128;SHT30;54931;52.098;21.006;2023-08-07T12:21:42;21.83;47.57
68128;SHT30;54931;52.098;21.006;2023-08-07T12:24:10;21.68;48.19
68128;SHT30;54931;52.098;21.006;2023-08-07T12:26:40;21.49;48.49
68128;SHT30;54931;52.098;21.006;2023-08-07T12:29:07;21.31;48.93
68128;SHT30;54931;52.098;21.006;2023-08-07T12:31:35;21.21;49.43
68128;SHT30;54931;52.098;21.006;2023-08-07T12:34:03;21.10;49.02
68128;SHT30;54931;52.098;21.006;2023-08-07T12:36:32;20.92;49.51
68128;SHT30;54931;52.098;21.006;2023-08-07T12:39:00;20.75;50.02
68128;SHT30;54931;52.098;21.006;2023-08-07T12:41:34;20.60;50.19
68128;SHT30;54931;52.098;21.006;2023-08-07T12:44:03;20.45;49.44
68128;SHT30;54931;52.098;21.006;2023-08-07T12:46:34;20.36;49.69
68128;SHT30;54931;52.098;21.006;2023-08-07T12:49:08;20.33;48.82
68128;SHT30;54931;52.098;21.006;2023-08-07T12:51:37;20.43;47.12
68128;SHT30;54931;52.098;21.006;2023-08-07T12:54:06;20.68;45.76
68128;SHT30;54931;52.098;21.006;2023-08-07T12:56:34;20.86;45.50
68128;SHT30;54931;52.098;21.006;2023-08-07T12:59:03;20.93;45.53
68128;SHT30;54931;52.098;21.006;2023-08-07T13:01:31;20.97;45.99
68128;SHT30;54931;52.098;21.006;2023-08-07T13:03:59;20.96;45.97
68128;SHT30;54931;52.098;21.006;2023-08-07T13:06:27;20.91;45.98
68128;SHT30;54931;52.098;21.006;2023-08-07T13:08:54;20.87;46.37
68128;SHT30;54931;52.098;21.006;2023-08-07T13:11:23;21.07;47.89
68128;SHT30;54931;52.098;21.006;2023-08-07T13:13:51;21.42;47.46
68128;SHT30;54931;52.098;21.006;2023-08-07T13:16:19;21.68;46.09
68128;SHT30;54931;52.098;21.006;2023-08-07T13:18:46;21.74;44.60
68128;SHT30;54931;52.098;21.006;2023-08-07T13:21:14;21.60;44.81
68128;SHT30;54931;52.098;21.006;2023-08-07T13:23:42;21.40;44.91
68128;SHT30;54931;52.098;21.006;2023-08-07T13:26:10;21.18;44.97
68128;SHT30;54931;52.098;21.006;2023-08-07T13:28:37;20.99;46.03
68128;SHT30;54931;52.098;21.006;2023-08-07T13:31:05;20.86;46.22
68128;SHT30;54931;52.098;21.006;2023-08-07T13:33:33;20.70;46.34
68128;SHT30;54931;52.098;21.006;2023-08-07T13:36:01;20.56;47.19
68128;SHT30;54931;52.098;21.006;2023-08-07T13:38:29;20.47;47.29
68128;SHT30;54931;52.098;21.006;2023-08-07T13:40:57;20.39;47.31
68128;SHT30;54931;52.098;21.006;2023-08-07T13:43:25;20.35;47.78
68128;SHT30;54931;52.098;21.006;2023-08-07T13:45:53;20.36;48.26
68128;SHT30;54931;52.098;21.006;2023-08-07T13:48:22;20.32;48.66
68128;SHT30;54931;52.098;21.006;2023-08-07T13:50:53;20.28;49.29
68128;SHT30;54931;52.098;21.006;2023-08-07T13:53:22;20.26;49.90
68128;SHT30;54931;52.098;21.006;2023-08-07T13:55:51;20.18;49.49
68128;SHT30;54931;52.098;21.006;2023-08-07T13:58:18;20.09;49.57
68128;SHT30;54931;52.098;21.006;2023-08-07T14:00:47;19.98;49.98
68128;SHT30;54931;52.098;21.006;2023-08-07T14:03:15;19.89;50.59
68128;SHT30;54931;52.098;21.006;2023-08-07T14:05:43;19.81;50.93
68128;SHT30;54931;52.098;21.006;2023-08-07T14:08:11;19.75;51.32
68128;SHT30;54931;52.098;21.006;2023-08-07T14:10:39;19.70;51.68
68128;SHT30;54931;52.098;21.006;2023-08-07T14:13:08;19.64;52.09
68128;SHT30;54931;52.098;21.006;2023-08-07T14:15:37;19.63;52.51
68128;SHT30;54931;52.098;21.006;2023-08-07T14:18:05;19.63;52.60
68128;SHT30;54931;52.098;21.006;2023-08-07T14:20:33;19.61;52.66
68128;SHT30;54931;52.098;21.006;2023-08-07T14:23:04;19.57;52.88
68128;SHT30;54931;52.098;21.006;2023-08-07T14:25:32;19.55;53.56
68128;SHT30;54931;52.098;21.006;2023-08-07T14:28:00;19.53;53.28
68128;SHT30;54931;52.098;21.006;2023-08-07T14:30:28;19.51;53.36
68128;SHT30;54931;52.098;21.006;2023-08-07T14:32:56;19.51;53.40
68128;SHT30;54931;52.098;21.006;2023-08-07T14:35:23;19.50;53.27
68128;SHT30;54931;52.098;21.006;2023-08-07T14:37:51;19.51;53.37
68128;SHT30;54931;52.098;21.006;2023-08-07T14:40:19;19.54;53.47
68128;SHT30;54931;52.098;21.006;2023-08-07T14:42:47;19.58;53.56
68128;SHT30;54931;52.098;21.006;2023-08-07T14:45:15;19.63;53.71
68128;SHT30;54931;52.098;21.006;2023-08-07T14:47:44;19.65;53.42
68128;SHT30;54931;52.098;21.006;2023-08-07T14:50:12;19.69;53.04
68128;SHT30;54931;52.098;21.006;2023-08-07T14:52:40;19.73;52.92
68128;SHT30;54931;52.098;21.006;2023-08-07T14:55:08;19.77;53.07
68128;SHT30;54931;52.098;21.006;2023-08-07T14:57:37;19.85;53.44
68128;SHT30;54931;52.098;21.006;2023-08-07T15:00:05;19.96;54.10
68128;SHT30;54931;52.098;21.006;2023-08-07T15:02:36;20.09;54.42
68128;SHT30;54931;52.098;21.006;2023-08-07T15:05:05;20.39;54.36
68128;SHT30;54931;52.098;21.006;2023-08-07T15:07:33;20.77;54.26
68128;SHT30;54931;52.098;21.006;2023-08-07T15:10:01;21.02;52.43
68128;SHT30;54931;52.098;21.006;2023-08-07T15:12:29;21.14;52.24
68128;SHT30;54931;52.098;21.006;2023-08-07T15:14:57;21.10;52.08
68128;SHT30;54931;52.098;21.006;2023-08-07T15:17:26;21.29;50.90
68128;SHT30;54931;52.098;21.006;2023-08-07T15:19:54;21.70;49.59
68128;SHT30;54931;52.098;21.006;2023-08-07T15:22:24;22.21;48.03
68128;SHT30;54931;52.098;21.006;2023-08-07T15:24:52;22.40;47.38
68128;SHT30;54931;52.098;21.006;2023-08-07T15:27:20;22.29;47.65
68128;SHT30;54931;52.098;21.006;2023-08-07T15:29:48;22.13;47.60
68128;SHT30;54931;52.098;21.006;2023-08-07T15:32:15;22.45;48.03
68128;SHT30;54931;52.098;21.006;2023-08-07T15:34:46;23.04;48.07
68128;SHT30;54931;52.098;21.006;2023-08-07T15:37:17;23.67;46.64